Time;durP1;ratioP1;P1;durP2;ratioP2;P2;SDS_P1;SDS_P2;PMS_P1;PMS_P2;Temp;Humidity;BMP_temperature;BMP_pressure;BME280_temperature;BME280_humidity;BME280_pressure;Samples;Min_cycle;Max_cycle;Signal;HPM_P1;HPM_P2
2022/08/10 00:01:06;;;;;;;6.88;4.60;;;;;;;;;;4900469;29;20032;-73
2022/08/10 00:03:31;;;;;;;7.43;4.53;;;;;;;;;;4899979;29;20092;-73
2022/08/10 00:05:56;;;;;;;7.13;4.32;;;;;;;;;;4900149;29;20035;-73
2022/08/10 00:08:25;;;;;;;7.35;4.70;;;;;;;;;;4900169;29;20024;-73
2022/08/10 00:10:51;;;;;;;9.05;4.40;;;;;;;;;;4899291;29;20097;-74
2022/08/10 00:13:17;;;;;;;9.85;5.25;;;;;;;;;;4900140;29;20025;-73
2022/08/10 00:15:42;;;;;;;7.70;4.47;;;;;;;;;;4900083;29;20471;-73
2022/08/10 00:18:07;;;;;;;8.20;5.03;;;;;;;;;;4899829;29;20407;-73
2022/08/10 00:20:33;;;;;;;7.82;4.97;;;;;;;;;;4900002;29;20504;-73
2022/08/10 00:22:58;;;;;;;7.80;4.78;;;;;;;;;;4896754;29;20055;-73
2022/08/10 00:25:23;;;;;;;7.78;5.03;;;;;;;;;;4898895;29;20045;-73
2022/08/10 00:27:49;;;;;;;7.35;4.95;;;;;;;;;;4899172;29;20046;-73
2022/08/10 00:30:14;;;;;;;8.32;4.78;;;;;;;;;;4899777;29;20024;-73
2022/08/10 00:32:39;;;;;;;13.65;4.95;;;;;;;;;;4899765;29;20040;-73
2022/08/10 00:35:05;;;;;;;10.88;4.95;;;;;;;;;;4899692;29;20033;-73
2022/08/10 00:37:30;;;;;;;9.02;4.95;;;;;;;;;;4899571;29;20033;-73
2022/08/10 00:39:55;;;;;;;9.85;5.05;;;;;;;;;;4899284;29;20032;-73
2022/08/10 00:42:21;;;;;;;8.43;4.95;;;;;;;;;;4899152;29;20075;-73
2022/08/10 00:44:48;;;;;;;9.05;5.10;;;;;;;;;;4899483;29;20025;-73
2022/08/10 00:47:14;;;;;;;7.35;5.03;;;;;;;;;;4885006;29;20037;-73
2022/08/10 00:49:39;;;;;;;8.98;5.32;;;;;;;;;;4885935;29;20032;-74
2022/08/10 00:52:05;;;;;;;7.15;4.72;;;;;;;;;;4886717;29;20376;-73
2022/08/10 00:54:31;;;;;;;8.95;5.53;;;;;;;;;;4899015;29;20055;-73
2022/08/10 00:56:56;;;;;;;10.43;5.30;;;;;;;;;;4899225;29;20103;-74
2022/08/10 00:59:22;;;;;;;9.13;4.95;;;;;;;;;;4888728;29;20039;-73
2022/08/10 01:01:47;;;;;;;10.75;5.95;;;;;;;;;;4882645;29;20065;-73
2022/08/10 01:04:12;;;;;;;11.70;6.35;;;;;;;;;;4892992;29;20036;-73
2022/08/10 01:07:01;;;;;;;9.85;5.90;;;;;;;;;;4899122;29;20023;-73
2022/08/10 01:09:26;;;;;;;11.38;6.10;;;;;;;;;;4891149;29;20117;-73
2022/08/10 01:12:00;;;;;;;9.23;5.38;;;;;;;;;;4898866;29;20099;-73
2022/08/10 01:14:35;;;;;;;8.68;5.30;;;;;;;;;;4898985;29;20064;-73
2022/08/10 01:17:16;;;;;;;11.45;5.78;;;;;;;;;;4885287;29;20419;-73
2022/08/10 01:19:41;;;;;;;10.40;6.22;;;;;;;;;;4898744;29;20040;-73
2022/08/10 01:22:06;;;;;;;12.55;5.25;;;;;;;;;;4898577;29;20085;-73
2022/08/10 01:24:49;;;;;;;10.77;5.72;;;;;;;;;;4898628;29;20032;-73
2022/08/10 01:27:18;;;;;;;12.90;5.88;;;;;;;;;;4898497;29;20511;-73
2022/08/10 01:29:55;;;;;;;17.02;6.43;;;;;;;;;;4898264;29;20484;-73
2022/08/10 01:32:29;;;;;;;12.70;6.18;;;;;;;;;;4898634;29;20029;-73
2022/08/10 01:34:55;;;;;;;11.68;6.03;;;;;;;;;;4898411;29;20571;-73
2022/08/10 01:37:23;;;;;;;10.60;6.43;;;;;;;;;;4898357;29;20063;-72
2022/08/10 01:39:52;;;;;;;10.25;6.15;;;;;;;;;;4896611;29;20041;-72
2022/08/10 01:42:20;;;;;;;10.43;6.00;;;;;;;;;;4898292;29;20025;-74
2022/08/10 01:44:48;;;;;;;14.15;6.05;;;;;;;;;;4898581;29;20020;-72
2022/08/10 01:50:10;;;;;;;10.82;5.78;;;;;;;;;;4898500;29;20384;-73
2022/08/10 01:52:36;;;;;;;11.73;6.15;;;;;;;;;;4898275;29;20044;-73
2022/08/10 01:55:02;;;;;;;12.02;6.28;;;;;;;;;;4897968;29;20025;-73
2022/08/10 01:57:29;;;;;;;11.80;6.25;;;;;;;;;;4898053;29;20029;-73
2022/08/10 01:59:56;;;;;;;14.38;6.45;;;;;;;;;;4888501;29;20037;-73
2022/08/10 02:02:22;;;;;;;11.52;6.38;;;;;;;;;;4884304;29;20025;-73
2022/08/10 02:04:49;;;;;;;12.80;6.82;;;;;;;;;;4883402;29;20041;-73
2022/08/10 02:07:19;;;;;;;11.43;6.40;;;;;;;;;;4881204;29;20516;-72
2022/08/10 02:09:46;;;;;;;13.10;6.90;;;;;;;;;;4888379;29;20426;-72
2022/08/10 02:12:14;;;;;;;12.32;6.35;;;;;;;;;;4892343;29;20036;-72
2022/08/10 02:14:41;;;;;;;13.50;7.18;;;;;;;;;;4893618;29;20043;-72
2022/08/10 02:17:09;;;;;;;13.30;6.22;;;;;;;;;;4888227;29;20025;-73
2022/08/10 02:19:35;;;;;;;13.80;6.65;;;;;;;;;;4887557;29;20631;-72
2022/08/10 02:22:01;;;;;;;13.30;6.70;;;;;;;;;;4893400;29;20123;-73
2022/08/10 02:24:26;;;;;;;16.75;6.97;;;;;;;;;;4890852;29;20108;-73
2022/08/10 02:26:52;;;;;;;13.75;6.03;;;;;;;;;;4890924;29;20164;-73
2022/08/10 02:29:17;;;;;;;12.60;6.43;;;;;;;;;;4892601;29;20044;-72
2022/08/10 02:31:43;;;;;;;14.70;6.53;;;;;;;;;;4891665;29;20020;-72
2022/08/10 02:34:10;;;;;;;16.50;7.18;;;;;;;;;;4892987;29;20043;-73
2022/08/10 02:36:37;;;;;;;14.60;6.95;;;;;;;;;;4896408;29;20076;-73
2022/08/10 02:39:04;;;;;;;16.10;7.15;;;;;;;;;;4895083;29;20041;-73
2022/08/10 02:41:38;;;;;;;12.75;6.50;;;;;;;;;;4893989;29;20058;-72
2022/08/10 02:44:12;;;;;;;15.18;6.55;;;;;;;;;;4886001;29;20041;-73
2022/08/10 02:46:44;;;;;;;16.85;7.00;;;;;;;;;;4893409;29;20032;-73
2022/08/10 02:49:19;;;;;;;13.60;7.07;;;;;;;;;;4886342;29;20029;-73
2022/08/10 02:51:56;;;;;;;16.45;6.55;;;;;;;;;;4894708;29;20068;-72
2022/08/10 02:54:24;;;;;;;14.00;6.45;;;;;;;;;;4895330;29;20037;-72
2022/08/10 02:56:52;;;;;;;13.57;7.22;;;;;;;;;;4891292;29;20037;-72
2022/08/10 02:59:22;;;;;;;14.48;7.10;;;;;;;;;;4899145;29;20032;-73
2022/08/10 03:01:49;;;;;;;16.38;6.93;;;;;;;;;;4899074;29;20035;-72
2022/08/10 03:04:20;;;;;;;14.70;6.65;;;;;;;;;;4896057;29;20040;-73
2022/08/10 03:06:48;;;;;;;12.95;6.07;;;;;;;;;;4901279;29;20020;-72
2022/08/10 03:09:15;;;;;;;15.60;6.68;;;;;;;;;;4900276;29;20037;-72
2022/08/10 03:11:42;;;;;;;14.20;6.35;;;;;;;;;;4901117;29;20036;-73
2022/08/10 03:14:08;;;;;;;13.38;6.70;;;;;;;;;;4901182;29;20046;-72
2022/08/10 03:16:34;;;;;;;19.45;7.40;;;;;;;;;;4891757;29;20056;-73
2022/08/10 03:19:01;;;;;;;12.02;6.40;;;;;;;;;;4897087;29;20057;-73
2022/08/10 03:21:27;;;;;;;13.48;6.75;;;;;;;;;;4886772;29;20053;-73
2022/08/10 03:23:54;;;;;;;14.90;7.30;;;;;;;;;;4885640;29;20063;-72
2022/08/10 03:26:20;;;;;;;15.70;6.80;;;;;;;;;;4882884;29;20037;-72
2022/08/10 03:28:46;;;;;;;13.73;6.85;;;;;;;;;;4887324;29;20033;-72
2022/08/10 03:31:12;;;;;;;13.30;6.63;;;;;;;;;;4889183;29;20380;-72
2022/08/10 03:33:38;;;;;;;15.90;7.20;;;;;;;;;;4888953;29;20037;-72
2022/08/10 03:36:05;;;;;;;14.20;6.72;;;;;;;;;;4891671;29;20095;-72
2022/08/10 03:38:30;;;;;;;14.98;7.00;;;;;;;;;;4886091;29;20037;-72
2022/08/10 03:40:56;;;;;;;15.77;6.80;;;;;;;;;;4889514;29;20037;-73
2022/08/10 03:43:22;;;;;;;16.40;7.30;;;;;;;;;;4891635;29;20668;-73
2022/08/10 03:45:50;;;;;;;18.02;7.25;;;;;;;;;;4897376;29;20498;-72
2022/08/10 03:48:17;;;;;;;15.40;6.18;;;;;;;;;;4896676;29;20041;-73
2022/08/10 03:50:43;;;;;;;17.33;6.97;;;;;;;;;;4900525;29;20024;-72
2022/08/10 03:53:08;;;;;;;16.92;6.85;;;;;;;;;;4893431;29;20492;-72
2022/08/10 03:55:33;;;;;;;13.60;6.95;;;;;;;;;;4883584;29;20037;-72
2022/08/10 03:57:59;;;;;;;14.77;7.00;;;;;;;;;;4900442;29;20035;-73
2022/08/10 04:00:27;;;;;;;12.07;6.43;;;;;;;;;;4900355;29;20028;-72
2022/08/10 04:02:52;;;;;;;17.05;7.35;;;;;;;;;;4900245;29;20051;-72
2022/08/10 04:05:18;;;;;;;15.00;7.22;;;;;;;;;;4900336;29;20111;-72
2022/08/10 04:07:43;;;;;;;12.50;6.97;;;;;;;;;;4900193;29;20089;-72
2022/08/10 04:10:09;;;;;;;15.02;7.13;;;;;;;;;;4900171;29;20040;-71
2022/08/10 04:12:34;;;;;;;13.40;6.70;;;;;;;;;;4900036;29;20025;-71
2022/08/10 04:15:00;;;;;;;14.25;6.40;;;;;;;;;;4900058;29;20370;-72
2022/08/10 04:17:25;;;;;;;16.63;7.32;;;;;;;;;;4892635;29;20060;-72
2022/08/10 04:19:51;;;;;;;15.20;6.32;;;;;;;;;;4891412;29;20393;-72
2022/08/10 04:22:17;;;;;;;15.45;6.95;;;;;;;;;;4891899;29;20101;-72
2022/08/10 04:24:43;;;;;;;15.90;6.85;;;;;;;;;;4889010;29;20473;-73
2022/08/10 04:27:09;;;;;;;16.13;7.45;;;;;;;;;;4892855;29;20059;-72
2022/08/10 04:29:35;;;;;;;18.23;7.28;;;;;;;;;;4889171;29;20064;-72
2022/08/10 04:32:01;;;;;;;16.33;7.22;;;;;;;;;;4898465;29;20037;-72
2022/08/10 04:34:30;;;;;;;16.15;7.50;;;;;;;;;;4891922;29;20025;-72
2022/08/10 04:36:57;;;;;;;13.18;7.03;;;;;;;;;;4897065;29;20400;-71
2022/08/10 04:39:22;;;;;;;14.75;6.93;;;;;;;;;;4892552;29;20044;-71
2022/08/10 04:41:48;;;;;;;18.02;7.63;;;;;;;;;;4897926;29;20100;-72
2022/08/10 04:44:13;;;;;;;17.13;7.82;;;;;;;;;;4895159;29;20029;-72
2022/08/10 04:46:39;;;;;;;12.98;6.95;;;;;;;;;;4894694;29;20040;-72
2022/08/10 04:49:04;;;;;;;15.15;7.05;;;;;;;;;;4892663;29;20036;-72
2022/08/10 04:51:29;;;;;;;22.25;7.40;;;;;;;;;;4898509;29;20036;-72
2022/08/10 04:53:55;;;;;;;13.00;6.82;;;;;;;;;;4893354;29;20080;-72
2022/08/10 04:56:20;;;;;;;13.60;6.40;;;;;;;;;;4897057;29;20029;-72
2022/08/10 04:58:45;;;;;;;19.98;7.10;;;;;;;;;;4894302;29;20092;-72
2022/08/10 05:01:10;;;;;;;14.48;7.07;;;;;;;;;;4897638;29;20079;-72
2022/08/10 05:03:36;;;;;;;19.20;7.10;;;;;;;;;;4891023;29;20076;-72
2022/08/10 05:06:01;;;;;;;18.38;7.35;;;;;;;;;;4891501;29;20033;-72
2022/08/10 05:08:26;;;;;;;15.85;6.25;;;;;;;;;;4885045;29;20070;-72
2022/08/10 05:10:52;;;;;;;17.85;7.18;;;;;;;;;;4887445;29;20031;-72
2022/08/10 05:13:18;;;;;;;16.13;6.40;;;;;;;;;;4881110;29;20033;-72
2022/08/10 05:15:44;;;;;;;13.07;6.47;;;;;;;;;;4882876;29;20536;-72
2022/08/10 05:18:09;;;;;;;16.80;6.47;;;;;;;;;;4880731;29;20041;-72
2022/08/10 05:20:35;;;;;;;15.50;6.63;;;;;;;;;;4886869;29;20085;-72
2022/08/10 05:23:00;;;;;;;16.80;6.65;;;;;;;;;;4885574;29;20412;-72
2022/08/10 05:25:25;;;;;;;16.98;6.35;;;;;;;;;;4885188;29;20020;-72
2022/08/10 05:27:51;;;;;;;12.48;6.55;;;;;;;;;;4881009;29;20036;-72
2022/08/10 05:30:17;;;;;;;13.00;6.28;;;;;;;;;;4892927;29;20076;-72
2022/08/10 05:35:59;;;;;;;11.25;5.80;;;;;;;;;;4893721;29;20061;-72
2022/08/10 05:38:25;;;;;;;13.00;6.25;;;;;;;;;;4881110;29;20053;-72
2022/08/10 05:40:50;;;;;;;9.95;5.30;;;;;;;;;;4890673;29;20085;-72
2022/08/10 05:43:19;;;;;;;12.85;5.70;;;;;;;;;;4896162;29;20052;-72
2022/08/10 05:45:45;;;;;;;8.38;4.32;;;;;;;;;;4885411;29;20037;-72
2022/08/10 05:48:10;;;;;;;6.68;3.75;;;;;;;;;;4897911;29;20103;-73
2022/08/10 05:50:35;;;;;;;7.05;3.30;;;;;;;;;;4898599;29;20028;-73
2022/08/10 05:53:01;;;;;;;3.35;2.63;;;;;;;;;;4895260;29;20032;-72
2022/08/10 05:55:28;;;;;;;7.45;2.88;;;;;;;;;;4889428;29;21238;-73
2022/08/10 05:57:53;;;;;;;6.35;2.38;;;;;;;;;;4888787;29;20520;-73
2022/08/10 06:00:20;;;;;;;4.43;2.28;;;;;;;;;;4893516;29;20030;-73
2022/08/10 06:02:51;;;;;;;3.80;2.10;;;;;;;;;;4890649;29;20024;-73
2022/08/10 06:05:19;;;;;;;4.07;1.80;;;;;;;;;;4888346;29;20088;-73
2022/08/10 06:07:50;;;;;;;3.65;1.90;;;;;;;;;;4891709;29;20174;-74
2022/08/10 06:10:16;;;;;;;2.92;1.60;;;;;;;;;;4889331;29;20028;-74
2022/08/10 06:12:43;;;;;;;2.80;1.63;;;;;;;;;;4889363;29;20020;-74
2022/08/10 06:15:09;;;;;;;5.05;2.00;;;;;;;;;;4886151;29;20512;-73
2022/08/10 06:17:34;;;;;;;4.47;1.70;;;;;;;;;;4893883;29;20036;-74
2022/08/10 06:20:00;;;;;;;4.57;1.67;;;;;;;;;;4894403;29;20036;-73
2022/08/10 06:22:26;;;;;;;3.25;1.40;;;;;;;;;;4897962;29;20051;-73
2022/08/10 06:24:52;;;;;;;4.93;2.08;;;;;;;;;;4894987;29;20031;-73
2022/08/10 06:27:18;;;;;;;2.88;1.67;;;;;;;;;;4898190;29;20111;-74
2022/08/10 06:29:44;;;;;;;4.18;1.55;;;;;;;;;;4897903;29;20120;-74
2022/08/10 06:32:11;;;;;;;4.15;1.60;;;;;;;;;;4897811;29;20473;-73
2022/08/10 06:34:48;;;;;;;3.55;1.60;;;;;;;;;;4897995;29;20036;-74
2022/08/10 06:37:16;;;;;;;2.63;1.50;;;;;;;;;;4897940;29;20047;-73
2022/08/10 06:39:41;;;;;;;4.65;1.67;;;;;;;;;;4897869;29;20040;-73
2022/08/10 06:42:09;;;;;;;4.90;1.70;;;;;;;;;;4897759;29;20092;-74
2022/08/10 06:44:39;;;;;;;3.25;1.70;;;;;;;;;;4897831;29;20036;-74
2022/08/10 06:47:07;;;;;;;2.67;1.58;;;;;;;;;;4897455;29;20052;-73
2022/08/10 06:49:33;;;;;;;3.60;1.50;;;;;;;;;;4898040;29;20040;-73
2022/08/10 06:52:00;;;;;;;5.68;1.80;;;;;;;;;;4881419;29;20029;-73
2022/08/10 06:54:26;;;;;;;3.95;1.80;;;;;;;;;;4888468;29;20029;-73
2022/08/10 06:56:53;;;;;;;2.95;1.52;;;;;;;;;;4891797;29;20068;-74
2022/08/10 06:59:21;;;;;;;2.70;1.50;;;;;;;;;;4881442;29;20061;-75
2022/08/10 07:01:48;;;;;;;3.20;1.58;;;;;;;;;;4890187;29;20021;-75
2022/08/10 07:04:29;;;;;;;3.45;1.95;;;;;;;;;;4885285;29;20052;-75
2022/08/10 07:06:55;;;;;;;5.03;1.63;;;;;;;;;;4881954;29;20025;-75
2022/08/10 07:09:21;;;;;;;3.55;1.88;;;;;;;;;;4885364;29;20057;-74
2022/08/10 07:11:47;;;;;;;3.47;1.70;;;;;;;;;;4881299;29;20028;-74
2022/08/10 07:14:15;;;;;;;5.13;1.60;;;;;;;;;;4887146;29;20040;-74
2022/08/10 07:16:43;;;;;;;3.58;1.52;;;;;;;;;;4889384;29;20130;-74
2022/08/10 07:19:09;;;;;;;3.08;1.70;;;;;;;;;;4884288;29;20079;-74
2022/08/10 07:21:36;;;;;;;3.25;1.52;;;;;;;;;;4891282;29;20080;-74
2022/08/10 07:24:03;;;;;;;6.72;1.75;;;;;;;;;;4889637;29;20041;-73
2022/08/10 07:26:29;;;;;;;4.75;1.75;;;;;;;;;;4889205;29;20024;-74
2022/08/10 07:28:55;;;;;;;4.70;1.60;;;;;;;;;;4884635;29;20081;-74
2022/08/10 07:31:21;;;;;;;2.75;1.48;;;;;;;;;;4889598;29;20032;-74
2022/08/10 07:33:48;;;;;;;4.18;1.70;;;;;;;;;;4884192;29;20025;-74
2022/08/10 07:36:14;;;;;;;3.45;1.80;;;;;;;;;;4884000;29;20033;-75
2022/08/10 07:38:41;;;;;;;2.90;1.77;;;;;;;;;;4899974;29;20032;-75
2022/08/10 07:41:07;;;;;;;3.78;1.77;;;;;;;;;;4888035;29;20032;-74
2022/08/10 07:43:36;;;;;;;3.75;1.60;;;;;;;;;;4885505;29;20381;-74
2022/08/10 07:46:03;;;;;;;2.88;1.70;;;;;;;;;;4890674;29;20047;-74
2022/08/10 07:48:29;;;;;;;3.10;1.83;;;;;;;;;;4887910;29;20047;-74
2022/08/10 07:50:56;;;;;;;3.72;1.55;;;;;;;;;;4884817;29;20115;-74
2022/08/10 07:53:25;;;;;;;6.65;1.88;;;;;;;;;;4885076;29;20048;-74
2022/08/10 07:55:51;;;;;;;7.45;2.15;;;;;;;;;;4892325;29;20434;-76
2022/08/10 07:58:18;;;;;;;3.28;1.70;;;;;;;;;;4894666;29;20107;-74
2022/08/10 08:00:44;;;;;;;5.55;1.77;;;;;;;;;;4894312;29;20040;-74
2022/08/10 08:03:11;;;;;;;4.50;1.65;;;;;;;;;;4899483;29;20060;-75
2022/08/10 08:05:38;;;;;;;4.15;1.88;;;;;;;;;;4899134;29;20076;-74
2022/08/10 08:08:04;;;;;;;4.13;1.90;;;;;;;;;;4900245;29;20143;-72
2022/08/10 08:10:30;;;;;;;3.60;1.83;;;;;;;;;;4900095;29;20031;-74
2022/08/10 08:13:00;;;;;;;4.45;1.80;;;;;;;;;;4899780;29;20036;-72
2022/08/10 08:15:26;;;;;;;4.90;1.80;;;;;;;;;;4900049;29;20036;-72
2022/08/10 08:17:52;;;;;;;4.68;1.85;;;;;;;;;;4899846;29;20029;-72
2022/08/10 08:20:19;;;;;;;4.97;2.00;;;;;;;;;;4900010;29;20104;-73
2022/08/10 08:22:45;;;;;;;5.80;1.90;;;;;;;;;;4895447;29;20060;-73
2022/08/10 08:25:12;;;;;;;3.35;1.67;;;;;;;;;;4898225;29;20029;-73
2022/08/10 08:27:39;;;;;;;4.47;1.65;;;;;;;;;;4887236;29;20032;-75
2022/08/10 08:30:06;;;;;;;4.00;1.70;;;;;;;;;;4886747;29;20559;-74
2022/08/10 08:32:33;;;;;;;4.85;1.70;;;;;;;;;;4889890;29;20025;-73
2022/08/10 08:35:02;;;;;;;2.78;1.67;;;;;;;;;;4887895;29;20037;-73
2022/08/10 08:37:31;;;;;;;3.83;1.83;;;;;;;;;;4896760;29;20032;-73
2022/08/10 08:39:57;;;;;;;5.75;1.70;;;;;;;;;;4899715;29;20346;-74
2022/08/10 08:42:34;;;;;;;5.85;1.60;;;;;;;;;;4899632;29;20043;-73
2022/08/10 08:45:21;;;;;;;5.43;1.95;;;;;;;;;;4894647;29;20465;-73
2022/08/10 08:48:05;;;;;;;2.97;1.40;;;;;;;;;;4898333;29;20090;-74
2022/08/10 08:50:42;;;;;;;2.63;1.52;;;;;;;;;;4899556;29;20060;-74
2022/08/10 08:53:13;;;;;;;4.20;1.90;;;;;;;;;;4892077;29;20036;-75
2022/08/10 08:55:47;;;;;;;2.78;1.30;;;;;;;;;;4890392;29;20028;-74
2022/08/10 08:58:20;;;;;;;8.85;2.00;;;;;;;;;;4899227;29;20056;-73
2022/08/10 09:00:52;;;;;;;5.05;1.55;;;;;;;;;;4899274;29;20056;-75
2022/08/10 09:03:17;;;;;;;;;;;;;;;;;;4899440;29;20040;-74
2022/08/10 09:05:45;;;;;;;6.90;1.67;;;;;;;;;;4899183;29;19908;-74
2022/08/10 09:08:29;;;;;;;6.90;1.65;;;;;;;;;;4899116;29;20044;-74
2022/08/10 09:11:07;;;;;;;3.78;1.60;;;;;;;;;;4897175;29;20037;-74
2022/08/10 09:13:38;;;;;;;4.63;1.40;;;;;;;;;;4890423;29;20040;-74
2022/08/10 09:16:07;;;;;;;11.05;1.60;;;;;;;;;;4885247;29;20064;-74
2022/08/10 09:18:43;;;;;;;4.07;1.40;;;;;;;;;;4888174;29;20056;-74
2022/08/10 09:21:28;;;;;;;6.00;1.50;;;;;;;;;;4892932;29;20067;-74
2022/08/10 09:24:00;;;;;;;3.25;1.60;;;;;;;;;;4895265;29;20127;-74
2022/08/10 09:26:32;;;;;;;3.30;1.60;;;;;;;;;;4898872;29;20080;-74
2022/08/10 09:28:58;;;;;;;10.40;2.00;;;;;;;;;;4898787;29;20044;-74
2022/08/10 09:31:26;;;;;;;7.25;1.77;;;;;;;;;;4898411;29;20053;-74
2022/08/10 09:33:52;;;;;;;4.07;1.80;;;;;;;;;;4898633;29;20551;-75
2022/08/10 09:36:29;;;;;;;4.15;1.63;;;;;;;;;;4898780;29;20127;-74
2022/08/10 09:39:04;;;;;;;7.88;1.70;;;;;;;;;;4898598;29;20049;-75
2022/08/10 09:41:50;;;;;;;4.75;1.70;;;;;;;;;;4898673;29;20044;-74
2022/08/10 09:44:30;;;;;;;3.40;1.60;;;;;;;;;;4898394;29;20036;-73
2022/08/10 09:47:18;;;;;;;5.68;1.55;;;;;;;;;;4898347;29;20416;-73
2022/08/10 09:50:03;;;;;;;6.13;1.88;;;;;;;;;;4883948;29;20056;-74
2022/08/10 09:52:51;;;;;;;2.63;1.48;;;;;;;;;;4897476;29;20037;-73
2022/08/10 09:55:26;;;;;;;10.77;1.63;;;;;;;;;;4870866;29;20064;-73
2022/08/10 09:57:57;;;;;;;5.80;1.60;;;;;;;;;;4897963;29;20441;-73
2022/08/10 10:00:25;;;;;;;4.88;1.80;;;;;;;;;;4889436;29;20032;-73
2022/08/10 10:03:00;;;;;;;6.03;1.73;;;;;;;;;;4885264;29;20493;-73
2022/08/10 10:05:31;;;;;;;2.90;1.38;;;;;;;;;;4890682;29;20044;-72
2022/08/10 10:08:03;;;;;;;3.43;1.60;;;;;;;;;;4890940;29;20397;-73
2022/08/10 10:10:42;;;;;;;3.35;1.50;;;;;;;;;;4890921;29;20041;-73
2022/08/10 10:13:14;;;;;;;9.07;1.70;;;;;;;;;;4889252;29;20489;-73
2022/08/10 10:15:51;;;;;;;5.50;1.73;;;;;;;;;;4887517;29;20200;-73
2022/08/10 10:18:23;;;;;;;7.32;1.73;;;;;;;;;;4894913;29;20028;-73
2022/08/10 10:20:59;;;;;;;10.75;1.95;;;;;;;;;;4897963;29;20104;-74
2022/08/10 10:23:39;;;;;;;7.53;1.90;;;;;;;;;;4898044;29;20041;-73
2022/08/10 10:26:10;;;;;;;5.68;1.80;;;;;;;;;;4897428;29;20432;-73
2022/08/10 10:28:40;;;;;;;4.53;1.80;;;;;;;;;;4897450;29;20104;-73
2022/08/10 10:31:10;;;;;;;3.85;1.70;;;;;;;;;;4897941;29;20076;-73
2022/08/10 10:33:35;;;;;;;4.38;1.50;;;;;;;;;;4897863;29;20036;-74
2022/08/10 10:36:01;;;;;;;6.43;1.70;;;;;;;;;;4897860;29;20073;-73
2022/08/10 10:38:36;;;;;;;5.32;1.52;;;;;;;;;;4898019;29;20243;-73
2022/08/10 10:41:08;;;;;;;5.35;1.42;;;;;;;;;;4897947;29;20041;-73
2022/08/10 10:43:52;;;;;;;5.03;1.70;;;;;;;;;;4897069;29;20372;-74
2022/08/10 10:46:37;;;;;;;2.58;1.27;;;;;;;;;;4883164;29;20116;-73
2022/08/10 10:49:14;;;;;;;6.68;1.50;;;;;;;;;;4885019;29;20034;-73
2022/08/10 10:51:46;;;;;;;3.28;1.40;;;;;;;;;;4889508;29;20115;-73
2022/08/10 10:54:18;;;;;;;6.75;1.88;;;;;;;;;;4888167;29;20114;-75
2022/08/10 10:56:52;;;;;;;3.70;1.50;;;;;;;;;;4891343;29;20477;-75
2022/08/10 10:59:49;;;;;;;5.65;1.73;;;;;;;;;;4886456;29;20029;-75
2022/08/10 11:02:17;;;;;;;5.10;1.50;;;;;;;;;;4889689;29;20040;-76
2022/08/10 11:04:51;;;;;;;5.93;1.50;;;;;;;;;;4901282;29;20493;-75
2022/08/10 11:07:24;;;;;;;4.70;1.63;;;;;;;;;;4901476;29;20036;-75
2022/08/10 11:10:01;;;;;;;3.88;1.73;;;;;;;;;;4900894;29;20476;-75
2022/08/10 11:12:29;;;;;;;6.22;1.20;;;;;;;;;;4892198;29;20043;-75
2022/08/10 11:15:00;;;;;;;5.70;1.48;;;;;;;;;;4886417;29;20042;-74
2022/08/10 11:17:28;;;;;;;2.85;1.35;;;;;;;;;;4889093;29;20040;-74
2022/08/10 11:20:01;;;;;;;6.45;1.50;;;;;;;;;;4884833;29;20377;-74
2022/08/10 11:22:38;;;;;;;3.92;2.00;;;;;;;;;;4886492;29;20053;-74
2022/08/10 11:25:23;;;;;;;5.13;1.60;;;;;;;;;;4882889;29;20558;-74
2022/08/10 11:27:54;;;;;;;7.10;1.80;;;;;;;;;;4900715;29;20064;-75
2022/08/10 11:30:19;;;;;;;6.45;1.90;;;;;;;;;;4900859;29;20039;-75
2022/08/10 11:32:47;;;;;;;5.47;1.65;;;;;;;;;;4891494;29;20037;-75
2022/08/10 11:35:37;;;;;;;2.50;1.30;;;;;;;;;;4884250;29;20033;-75
2022/08/10 11:38:14;;;;;;;3.90;1.38;;;;;;;;;;4900877;29;20036;-75
2022/08/10 11:40:48;;;;;;;2.35;1.27;;;;;;;;;;4892458;29;20396;-75
2022/08/10 11:43:20;;;;;;;5.32;1.70;;;;;;;;;;4899808;29;20132;-75
2022/08/10 11:45:48;;;;;;;3.40;1.60;;;;;;;;;;4893159;29;20433;-75
2022/08/10 11:48:25;;;;;;;5.20;1.50;;;;;;;;;;4900664;29;20119;-75
2022/08/10 11:50:53;;;;;;;5.22;1.45;;;;;;;;;;4900612;29;20036;-75
2022/08/10 11:53:25;;;;;;;6.72;1.50;;;;;;;;;;4899510;29;20085;-75
2022/08/10 11:55:54;;;;;;;4.43;1.63;;;;;;;;;;4900657;29;20041;-75
2022/08/10 12:01:06;;;;;;;3.17;1.40;;;;;;;;;;4894494;29;20523;-75
2022/08/10 12:03:32;;;;;;;3.72;1.50;;;;;;;;;;4894294;29;20075;-75
2022/08/10 12:05:58;;;;;;;10.57;1.50;;;;;;;;;;4893487;29;20040;-74
2022/08/10 12:08:25;;;;;;;4.35;1.40;;;;;;;;;;4888790;29;20036;-76
2022/08/10 12:10:51;;;;;;;7.47;1.98;;;;;;;;;;4895528;29;20068;-75
2022/08/10 12:13:34;;;;;;;3.30;1.40;;;;;;;;;;4897813;29;20131;-75
2022/08/10 12:15:59;;;;;;;3.92;1.13;;;;;;;;;;4890279;29;20437;-75
2022/08/10 12:18:27;;;;;;;7.65;1.40;;;;;;;;;;4900010;29;20116;-75
2022/08/10 12:20:56;;;;;;;8.10;1.85;;;;;;;;;;4900183;29;20100;-75
2022/08/10 12:23:44;;;;;;;4.18;1.50;;;;;;;;;;4899900;29;20028;-74
2022/08/10 12:26:23;;;;;;;4.20;1.55;;;;;;;;;;4895794;29;20056;-75
2022/08/10 12:29:09;;;;;;;2.22;1.23;;;;;;;;;;4889824;29;20044;-75
2022/08/10 12:31:42;;;;;;;2.30;1.30;;;;;;;;;;4899345;29;20036;-74
2022/08/10 12:34:13;;;;;;;3.50;1.60;;;;;;;;;;4899618;29;20089;-75
2022/08/10 12:36:45;;;;;;;3.30;1.30;;;;;;;;;;4899026;29;20063;-76
2022/08/10 12:39:13;;;;;;;2.90;1.30;;;;;;;;;;4888006;29;20498;-75
2022/08/10 12:41:43;;;;;;;5.60;1.50;;;;;;;;;;4891192;29;20044;-75
2022/08/10 12:44:11;;;;;;;8.13;1.88;;;;;;;;;;4892656;29;20028;-75
2022/08/10 12:46:55;;;;;;;3.40;1.60;;;;;;;;;;4899904;29;20036;-75
2022/08/10 12:49:33;;;;;;;3.88;1.40;;;;;;;;;;4897753;29;20039;-75
2022/08/10 12:52:05;;;;;;;3.47;1.20;;;;;;;;;;4895697;29;20176;-75
2022/08/10 12:54:33;;;;;;;7.53;1.23;;;;;;;;;;4893461;29;20063;-75
2022/08/10 12:57:00;;;;;;;3.72;1.48;;;;;;;;;;4892622;29;20048;-75
2022/08/10 12:59:26;;;;;;;6.13;1.50;;;;;;;;;;4895331;29;20037;-75
2022/08/10 13:01:52;;;;;;;5.10;1.55;;;;;;;;;;4893334;29;20063;-75
2022/08/10 13:04:24;;;;;;;4.80;1.38;;;;;;;;;;4899234;29;20033;-75
2022/08/10 13:06:50;;;;;;;3.92;1.20;;;;;;;;;;4898925;29;20104;-75
2022/08/10 13:09:22;;;;;;;4.40;1.40;;;;;;;;;;4899203;29;20461;-74
2022/08/10 13:11:58;;;;;;;2.40;1.40;;;;;;;;;;4888909;29;20157;-75
2022/08/10 13:14:32;;;;;;;6.53;1.13;;;;;;;;;;4890882;29;20040;-75
2022/08/10 13:16:59;;;;;;;7.57;1.63;;;;;;;;;;4883568;29;20037;-75
2022/08/10 13:19:25;;;;;;;4.40;1.42;;;;;;;;;;4883605;29;20136;-75
2022/08/10 13:21:51;;;;;;;3.50;1.15;;;;;;;;;;4886077;29;20044;-75
2022/08/10 13:24:21;;;;;;;3.65;1.40;;;;;;;;;;4882354;29;20032;-75
2022/08/10 13:27:06;;;;;;;6.78;1.60;;;;;;;;;;4881893;29;20044;-75
2022/08/10 13:29:34;;;;;;;10.70;1.50;;;;;;;;;;4891882;29;20044;-75
2022/08/10 13:31:59;;;;;;;4.93;1.33;;;;;;;;;;4897974;29;20064;-75
2022/08/10 13:34:26;;;;;;;11.70;1.25;;;;;;;;;;4897922;29;20059;-75
2022/08/10 13:36:54;;;;;;;5.00;1.23;;;;;;;;;;4897475;29;20037;-75
2022/08/10 13:39:21;;;;;;;5.55;1.30;;;;;;;;;;4897624;29;20377;-75
2022/08/10 13:41:47;;;;;;;4.03;1.30;;;;;;;;;;4897949;29;20035;-75
2022/08/10 13:44:25;;;;;;;4.25;1.30;;;;;;;;;;4894765;29;20024;-76
2022/08/10 13:46:52;;;;;;;2.53;1.23;;;;;;;;;;4888021;29;20120;-75
2022/08/10 13:49:19;;;;;;;2.75;1.30;;;;;;;;;;4893414;29;20044;-76
2022/08/10 13:51:45;;;;;;;5.15;1.20;;;;;;;;;;4890804;29;20481;-74
2022/08/10 13:54:12;;;;;;;3.20;1.30;;;;;;;;;;4897572;29;20096;-75
2022/08/10 13:56:40;;;;;;;3.85;1.33;;;;;;;;;;4897148;29;20561;-75
2022/08/10 13:59:05;;;;;;;5.32;1.20;;;;;;;;;;4896832;29;20499;-75
2022/08/10 14:01:31;;;;;;;3.05;1.30;;;;;;;;;;4897550;29;20025;-75
2022/08/10 14:03:58;;;;;;;4.30;1.30;;;;;;;;;;4897636;29;20115;-75
2022/08/10 14:06:24;;;;;;;3.40;1.20;;;;;;;;;;4895863;29;20084;-75
2022/08/10 14:09:00;;;;;;;3.55;1.20;;;;;;;;;;4897177;29;20035;-75
2022/08/10 14:11:27;;;;;;;4.07;1.40;;;;;;;;;;4889100;29;20119;-75
2022/08/10 14:13:56;;;;;;;3.95;1.30;;;;;;;;;;4896203;29;20101;-75
2022/08/10 14:16:22;;;;;;;4.35;1.23;;;;;;;;;;4897135;29;20028;-75
2022/08/10 14:18:50;;;;;;;4.00;1.48;;;;;;;;;;4894747;29;20051;-75
2022/08/10 14:21:15;;;;;;;3.90;1.45;;;;;;;;;;4886252;29;20097;-75
2022/08/10 14:23:45;;;;;;;4.97;1.30;;;;;;;;;;4894409;29;20029;-75
2022/08/10 14:26:11;;;;;;;3.50;1.45;;;;;;;;;;4897059;29;20024;-76
2022/08/10 14:28:44;;;;;;;4.72;1.25;;;;;;;;;;4897058;29;20095;-75
2022/08/10 14:31:12;;;;;;;5.00;1.35;;;;;;;;;;4886889;29;20093;-75
2022/08/10 14:33:40;;;;;;;6.10;1.20;;;;;;;;;;4886611;29;20017;-75
2022/08/10 14:36:07;;;;;;;6.00;1.50;;;;;;;;;;4884097;29;20408;-76
2022/08/10 14:38:34;;;;;;;3.67;1.10;;;;;;;;;;4884462;29;20033;-75
2022/08/10 14:41:01;;;;;;;3.70;1.63;;;;;;;;;;4886592;29;20057;-75
2022/08/10 14:43:31;;;;;;;6.68;1.60;;;;;;;;;;4895379;29;20432;-75
2022/08/10 14:46:02;;;;;;;8.85;1.27;;;;;;;;;;4900658;29;20511;-75
2022/08/10 14:48:32;;;;;;;4.47;1.50;;;;;;;;;;4900786;29;20035;-75
2022/08/10 14:50:58;;;;;;;2.63;1.17;;;;;;;;;;4900618;29;20385;-75
2022/08/10 14:53:25;;;;;;;3.25;1.17;;;;;;;;;;4901003;29;20480;-75
2022/08/10 14:55:52;;;;;;;4.47;1.23;;;;;;;;;;4900981;29;20020;-75
2022/08/10 14:58:21;;;;;;;4.05;1.25;;;;;;;;;;4902367;29;20040;-75